sensor_id;sensor_type;location;lat;lon;timestamp;pressure;altitude;pressure_sealevel;temperature;humidity
18201;BME280;9226;47.858;9.594;2022-12-17T00:00:43;95305.72;;;-1.36;75.35
18201;BME280;9226;47.858;9.594;2022-12-17T00:03:26;95309.44;;;-1.43;75.37
18201;BME280;9226;47.858;9.594;2022-12-17T00:06:10;95308.13;;;-1.55;75.18
18201;BME280;9226;47.858;9.594;2022-12-17T00:08:54;95311.69;;;-1.57;75.17
18201;BME280;9226;47.858;9.594;2022-12-17T00:11:38;95310.66;;;-1.77;75.24
18201;BME280;9226;47.858;9.594;2022-12-17T00:14:23;95316.78;;;-1.79;75.12
18201;BME280;9226;47.858;9.594;2022-12-17T00:17:06;95319.66;;;-1.87;74.92
18201;BME280;9226;47.858;9.594;2022-12-17T00:19:50;95321.72;;;-1.97;75.09
18201;BME280;9226;47.858;9.594;2022-12-17T00:22:34;95323.78;;;-2.07;75.38
18201;BME280;9226;47.858;9.594;2022-12-17T00:25:18;95329.28;;;-2.16;75.14
18201;BME280;9226;47.858;9.594;2022-12-17T00:28:02;95333.03;;;-2.25;75.43
18201;BME280;9226;47.858;9.594;2022-12-17T00:30:51;95340.28;;;-2.34;75.34
18201;BME280;9226;47.858;9.594;2022-12-17T00:33:35;95340.69;;;-2.47;75.67
18201;BME280;9226;47.858;9.594;2022-12-17T00:36:19;95351.16;;;-2.50;75.54
18201;BME280;9226;47.858;9.594;2022-12-17T00:39:03;95350.56;;;-2.58;75.97
18201;BME280;9226;47.858;9.594;2022-12-17T00:41:47;95352.41;;;-2.62;75.64
18201;BME280;9226;47.858;9.594;2022-12-17T00:44:31;95351.66;;;-2.65;76.00
18201;BME280;9226;47.858;9.594;2022-12-17T00:47:15;95356.13;;;-2.70;75.83
18201;BME280;9226;47.858;9.594;2022-12-17T00:49:58;95355.53;;;-2.79;76.30
18201;BME280;9226;47.858;9.594;2022-12-17T00:52:42;95366.97;;;-2.84;75.57
18201;BME280;9226;47.858;9.594;2022-12-17T00:55:26;95370.53;;;-2.88;75.62
18201;BME280;9226;47.858;9.594;2022-12-17T00:58:10;95367.22;;;-2.94;75.43
18201;BME280;9226;47.858;9.594;2022-12-17T01:00:58;95370.13;;;-3.04;76.03
18201;BME280;9226;47.858;9.594;2022-12-17T01:03:42;95372.72;;;-3.04;75.54
18201;BME280;9226;47.858;9.594;2022-12-17T01:06:26;95377.22;;;-3.10;75.51
18201;BME280;9226;47.858;9.594;2022-12-17T01:09:10;95380.78;;;-3.14;75.28
18201;BME280;9226;47.858;9.594;2022-12-17T01:11:54;95385.25;;;-3.19;75.33
18201;BME280;9226;47.858;9.594;2022-12-17T01:14:38;95388.91;;;-3.26;75.28
18201;BME280;9226;47.858;9.594;2022-12-17T01:17:22;95392.66;;;-3.36;75.55
18201;BME280;9226;47.858;9.594;2022-12-17T01:20:06;95395.63;;;-3.50;76.09
18201;BME280;9226;47.858;9.594;2022-12-17T01:22:50;95402.31;;;-3.41;75.42
18201;BME280;9226;47.858;9.594;2022-12-17T01:25:34;95407.75;;;-3.51;75.63
18201;BME280;9226;47.858;9.594;2022-12-17T01:28:32;95409.91;;;-3.67;75.80
18201;BME280;9226;47.858;9.594;2022-12-17T01:31:16;95415.97;;;-3.68;76.12
18201;BME280;9226;47.858;9.594;2022-12-17T01:34:00;95414.34;;;-3.72;75.96
18201;BME280;9226;47.858;9.594;2022-12-17T01:36:44;95417.88;;;-3.74;75.94
18201;BME280;9226;47.858;9.594;2022-12-17T01:39:28;95414.63;;;-3.83;76.05
18201;BME280;9226;47.858;9.594;2022-12-17T01:42:12;95417.28;;;-3.84;75.97
18201;BME280;9226;47.858;9.594;2022-12-17T01:45:13;95417.31;;;-3.86;75.73
18201;BME280;9226;47.858;9.594;2022-12-17T01:48:00;95417.59;;;-3.98;76.22
18201;BME280;9226;47.858;9.594;2022-12-17T01:50:49;95419.28;;;-3.97;75.80
18201;BME280;9226;47.858;9.594;2022-12-17T01:53:36;95412.41;;;-3.98;75.51
18201;BME280;9226;47.858;9.594;2022-12-17T01:56:21;95420.31;;;-4.03;75.91
18201;BME280;9226;47.858;9.594;2022-12-17T01:59:06;95422.94;;;-4.04;75.46
18201;BME280;9226;47.858;9.594;2022-12-17T02:01:52;95433.47;;;-4.12;75.43
18201;BME280;9226;47.858;9.594;2022-12-17T02:04:36;95437.81;;;-4.12;75.42
18201;BME280;9226;47.858;9.594;2022-12-17T02:07:36;95442.28;;;-4.19;75.38
18201;BME280;9226;47.858;9.594;2022-12-17T02:11:10;95440.78;;;-4.28;75.35
18201;BME280;9226;47.858;9.594;2022-12-17T02:17:01;95447.84;;;-4.34;75.57
18201;BME280;9226;47.858;9.594;2022-12-17T02:20:12;95439.44;;;-4.44;75.86
18201;BME280;9226;47.858;9.594;2022-12-17T02:26:37;95444.81;;;-4.53;75.92
18201;BME280;9226;47.858;9.594;2022-12-17T02:29:24;95448.25;;;-4.53;76.00
18201;BME280;9226;47.858;9.594;2022-12-17T02:32:11;95447.56;;;-4.61;76.11
18201;BME280;9226;47.858;9.594;2022-12-17T02:34:59;95443.16;;;-4.58;75.75
18201;BME280;9226;47.858;9.594;2022-12-17T02:37:47;95444.28;;;-4.68;76.02
18201;BME280;9226;47.858;9.594;2022-12-17T02:40:32;95447.06;;;-4.77;76.73
18201;BME280;9226;47.858;9.594;2022-12-17T02:43:18;95455.72;;;-4.80;76.92
18201;BME280;9226;47.858;9.594;2022-12-17T02:46:03;95455.78;;;-4.83;76.81
18201;BME280;9226;47.858;9.594;2022-12-17T02:48:48;95469.56;;;-4.82;76.63
18201;BME280;9226;47.858;9.594;2022-12-17T02:51:32;95461.13;;;-4.91;77.01
18201;BME280;9226;47.858;9.594;2022-12-17T02:54:16;95460.28;;;-4.91;76.62
18201;BME280;9226;47.858;9.594;2022-12-17T02:57:00;95462.06;;;-4.95;76.64
18201;BME280;9226;47.858;9.594;2022-12-17T02:59:44;95460.44;;;-4.99;76.80
18201;BME280;9226;47.858;9.594;2022-12-17T03:02:28;95462.16;;;-4.99;76.76
18201;BME280;9226;47.858;9.594;2022-12-17T03:05:12;95466.47;;;-5.00;77.03
18201;BME280;9226;47.858;9.594;2022-12-17T03:07:57;95458.69;;;-4.98;76.82
18201;BME280;9226;47.858;9.594;2022-12-17T03:10:41;95461.28;;;-5.00;76.66
18201;BME280;9226;47.858;9.594;2022-12-17T03:13:27;95456.31;;;-5.07;76.91
18201;BME280;9226;47.858;9.594;2022-12-17T03:16:14;95464.78;;;-5.01;76.56
18201;BME280;9226;47.858;9.594;2022-12-17T03:18:58;95465.81;;;-5.10;76.84
18201;BME280;9226;47.858;9.594;2022-12-17T03:21:42;95471.91;;;-5.12;77.01
18201;BME280;9226;47.858;9.594;2022-12-17T03:24:27;95472.69;;;-5.09;76.59
18201;BME280;9226;47.858;9.594;2022-12-17T03:27:11;95473.53;;;-5.08;76.36
18201;BME280;9226;47.858;9.594;2022-12-17T03:29:55;95477.97;;;-5.13;76.58
18201;BME280;9226;47.858;9.594;2022-12-17T03:32:39;95472.81;;;-5.15;76.41
18201;BME280;9226;47.858;9.594;2022-12-17T03:35:24;95476.31;;;-5.17;76.49
18201;BME280;9226;47.858;9.594;2022-12-17T03:38:09;95475.50;;;-5.21;76.54
18201;BME280;9226;47.858;9.594;2022-12-17T03:40:54;95479.22;;;-5.33;77.24
18201;BME280;9226;47.858;9.594;2022-12-17T03:43:38;95484.38;;;-5.33;77.17
18201;BME280;9226;47.858;9.594;2022-12-17T03:46:22;95479.91;;;-5.24;76.59
18201;BME280;9226;47.858;9.594;2022-12-17T03:49:06;95482.59;;;-5.31;76.84
18201;BME280;9226;47.858;9.594;2022-12-17T03:51:50;95494.56;;;-5.25;76.43
18201;BME280;9226;47.858;9.594;2022-12-17T03:54:34;95497.28;;;-5.31;76.35
18201;BME280;9226;47.858;9.594;2022-12-17T03:57:18;95488.66;;;-5.33;76.66
18201;BME280;9226;47.858;9.594;2022-12-17T04:00:03;95498.22;;;-5.37;76.48
18201;BME280;9226;47.858;9.594;2022-12-17T04:02:48;95494.06;;;-5.46;76.63
18201;BME280;9226;47.858;9.594;2022-12-17T04:05:31;95498.50;;;-5.52;76.66
18201;BME280;9226;47.858;9.594;2022-12-17T04:08:16;95500.22;;;-5.51;76.51
18201;BME280;9226;47.858;9.594;2022-12-17T04:11:00;95504.53;;;-5.52;76.86
18201;BME280;9226;47.858;9.594;2022-12-17T04:13:44;95507.91;;;-5.48;76.49
18201;BME280;9226;47.858;9.594;2022-12-17T04:16:28;95509.75;;;-5.53;76.52
18201;BME280;9226;47.858;9.594;2022-12-17T04:19:12;95511.63;;;-5.65;76.38
18201;BME280;9226;47.858;9.594;2022-12-17T04:21:55;95522.00;;;-5.68;76.80
18201;BME280;9226;47.858;9.594;2022-12-17T04:24:39;95522.00;;;-5.66;76.63
18201;BME280;9226;47.858;9.594;2022-12-17T04:27:34;95519.59;;;-5.75;76.56
18201;BME280;9226;47.858;9.594;2022-12-17T04:30:18;95527.34;;;-5.75;76.37
18201;BME280;9226;47.858;9.594;2022-12-17T04:33:02;95533.31;;;-5.73;76.01
18201;BME280;9226;47.858;9.594;2022-12-17T04:35:46;95536.88;;;-5.81;75.82
18201;BME280;9226;47.858;9.594;2022-12-17T04:38:30;95524.88;;;-5.83;75.81
18201;BME280;9226;47.858;9.594;2022-12-17T04:41:15;95533.50;;;-5.86;76.00
18201;BME280;9226;47.858;9.594;2022-12-17T04:43:59;95537.91;;;-5.91;76.07
18201;BME280;9226;47.858;9.594;2022-12-17T04:46:43;95536.16;;;-5.90;75.88
18201;BME280;9226;47.858;9.594;2022-12-17T04:49:27;95549.22;;;-5.96;76.08
18201;BME280;9226;47.858;9.594;2022-12-17T04:52:11;95550.91;;;-5.95;75.92
18201;BME280;9226;47.858;9.594;2022-12-17T04:54:55;95550.94;;;-5.97;75.73
18201;BME280;9226;47.858;9.594;2022-12-17T04:57:39;95550.13;;;-5.99;75.76
18201;BME280;9226;47.858;9.594;2022-12-17T05:00:23;95548.53;;;-6.08;75.74
18201;BME280;9226;47.858;9.594;2022-12-17T05:03:12;95552.81;;;-6.07;75.52
18201;BME280;9226;47.858;9.594;2022-12-17T05:05:57;95555.44;;;-6.08;75.46
18201;BME280;9226;47.858;9.594;2022-12-17T05:08:41;95564.09;;;-6.12;75.71
18201;BME280;9226;47.858;9.594;2022-12-17T05:11:25;95558.97;;;-6.17;75.81
18201;BME280;9226;47.858;9.594;2022-12-17T05:14:09;95568.56;;;-6.25;76.47
18201;BME280;9226;47.858;9.594;2022-12-17T05:16:53;95570.25;;;-6.21;76.48
18201;BME280;9226;47.858;9.594;2022-12-17T05:19:37;95570.25;;;-6.21;76.32
18201;BME280;9226;47.858;9.594;2022-12-17T05:22:21;95572.88;;;-6.24;76.54
18201;BME280;9226;47.858;9.594;2022-12-17T05:25:05;95583.97;;;-6.19;76.36
18201;BME280;9226;47.858;9.594;2022-12-17T05:27:49;95591.81;;;-6.27;76.39
18201;BME280;9226;47.858;9.594;2022-12-17T05:30:33;95591.78;;;-6.24;76.13
18201;BME280;9226;47.858;9.594;2022-12-17T05:33:17;95603.88;;;-6.26;76.22
18201;BME280;9226;47.858;9.594;2022-12-17T05:36:02;95596.19;;;-6.30;76.43
18201;BME280;9226;47.858;9.594;2022-12-17T05:38:47;95605.59;;;-6.26;76.51
18201;BME280;9226;47.858;9.594;2022-12-17T05:41:31;95604.81;;;-6.33;76.50
18201;BME280;9226;47.858;9.594;2022-12-17T05:44:15;95606.56;;;-6.33;76.43
18201;BME280;9226;47.858;9.594;2022-12-17T05:46:58;95607.47;;;-6.39;76.63
18201;BME280;9226;47.858;9.594;2022-12-17T05:49:42;95609.16;;;-6.37;76.51
18201;BME280;9226;47.858;9.594;2022-12-17T05:52:27;95610.94;;;-6.39;76.91
18201;BME280;9226;47.858;9.594;2022-12-17T05:55:11;95611.84;;;-6.44;77.07
18201;BME280;9226;47.858;9.594;2022-12-17T05:58:03;95616.94;;;-6.40;77.08
18201;BME280;9226;47.858;9.594;2022-12-17T06:00:47;95611.78;;;-6.40;77.06
18201;BME280;9226;47.858;9.594;2022-12-17T06:03:32;95611.84;;;-6.43;77.64
18201;BME280;9226;47.858;9.594;2022-12-17T06:06:16;95627.34;;;-6.46;77.82
18201;BME280;9226;47.858;9.594;2022-12-17T06:09:00;95623.91;;;-6.43;77.60
18201;BME280;9226;47.858;9.594;2022-12-17T06:11:44;95611.78;;;-6.40;77.20
18201;BME280;9226;47.858;9.594;2022-12-17T06:14:28;95622.97;;;-6.39;76.70
18201;BME280;9226;47.858;9.594;2022-12-17T06:17:12;95619.53;;;-6.40;76.60
18201;BME280;9226;47.858;9.594;2022-12-17T06:19:56;95624.72;;;-6.43;76.33
18201;BME280;9226;47.858;9.594;2022-12-17T06:22:40;95630.75;;;-6.44;76.09
18201;BME280;9226;47.858;9.594;2022-12-17T06:25:24;95629.09;;;-6.48;76.36
18201;BME280;9226;47.858;9.594;2022-12-17T06:28:08;95629.13;;;-6.51;76.35
18201;BME280;9226;47.858;9.594;2022-12-17T06:30:53;95635.16;;;-6.50;76.13
18201;BME280;9226;47.858;9.594;2022-12-17T06:33:38;95637.75;;;-6.52;75.84
18201;BME280;9226;47.858;9.594;2022-12-17T06:36:22;95639.56;;;-6.59;76.17
18201;BME280;9226;47.858;9.594;2022-12-17T06:39:06;95641.28;;;-6.58;76.06
18201;BME280;9226;47.858;9.594;2022-12-17T06:41:50;95649.06;;;-6.64;76.13
18201;BME280;9226;47.858;9.594;2022-12-17T06:44:35;95650.75;;;-6.61;76.06
18201;BME280;9226;47.858;9.594;2022-12-17T06:47:20;95649.97;;;-6.68;76.28
18201;BME280;9226;47.858;9.594;2022-12-17T06:50:04;95655.13;;;-6.66;76.30
18201;BME280;9226;47.858;9.594;2022-12-17T06:53:03;95660.31;;;-6.69;76.43
18201;BME280;9226;47.858;9.594;2022-12-17T06:55:47;95655.13;;;-6.68;76.05
18201;BME280;9226;47.858;9.594;2022-12-17T06:58:32;95663.72;;;-6.67;75.96
18201;BME280;9226;47.858;9.594;2022-12-17T07:01:16;95663.72;;;-6.69;75.94
18201;BME280;9226;47.858;9.594;2022-12-17T07:04:00;95669.78;;;-6.70;76.11
18201;BME280;9226;47.858;9.594;2022-12-17T07:06:44;95674.06;;;-6.70;75.93
18201;BME280;9226;47.858;9.594;2022-12-17T07:09:28;95681.75;;;-6.64;75.66
18201;BME280;9226;47.858;9.594;2022-12-17T07:12:12;95692.94;;;-6.64;75.52
18201;BME280;9226;47.858;9.594;2022-12-17T07:14:56;95695.56;;;-6.68;75.46
18201;BME280;9226;47.858;9.594;2022-12-17T07:17:40;95695.50;;;-6.61;75.48
18201;BME280;9226;47.858;9.594;2022-12-17T07:20:24;95704.09;;;-6.62;75.59
18201;BME280;9226;47.858;9.594;2022-12-17T07:23:08;95701.53;;;-6.63;75.76
18201;BME280;9226;47.858;9.594;2022-12-17T07:25:52;95709.22;;;-6.57;75.78
18201;BME280;9226;47.858;9.594;2022-12-17T07:28:36;95709.88;;;-6.37;75.67
18201;BME280;9226;47.858;9.594;2022-12-17T07:31:20;95707.88;;;-6.14;75.63
18201;BME280;9226;47.858;9.594;2022-12-17T07:34:04;95706.66;;;-5.87;75.76
18201;BME280;9226;47.858;9.594;2022-12-17T07:36:48;95708.78;;;-5.53;75.37
18201;BME280;9226;47.858;9.594;2022-12-17T07:39:32;95710.88;;;-5.19;75.29
18201;BME280;9226;47.858;9.594;2022-12-17T07:42:26;95718.38;;;-4.52;74.62
18201;BME280;9226;47.858;9.594;2022-12-17T07:45:10;95721.47;;;-3.87;72.49
18201;BME280;9226;47.858;9.594;2022-12-17T07:47:54;95718.19;;;-3.15;71.44
18201;BME280;9226;47.858;9.594;2022-12-17T07:50:38;95724.78;;;-2.31;70.12
18201;BME280;9226;47.858;9.594;2022-12-17T07:53:22;95723.81;;;-1.65;67.78
18201;BME280;9226;47.858;9.594;2022-12-17T07:56:06;95724.44;;;-0.98;66.54
18201;BME280;9226;47.858;9.594;2022-12-17T07:58:50;95731.84;;;-0.31;63.28
18201;BME280;9226;47.858;9.594;2022-12-17T08:01:36;95729.06;;;0.48;60.93
18201;BME280;9226;47.858;9.594;2022-12-17T08:04:20;95736.38;;;1.30;61.29
18201;BME280;9226;47.858;9.594;2022-12-17T08:07:04;95732.63;;;1.79;56.63
18201;BME280;9226;47.858;9.594;2022-12-17T08:09:47;95736.59;;;2.29;55.45
18201;BME280;9226;47.858;9.594;2022-12-17T08:12:31;95738.00;;;2.95;53.38
18201;BME280;9226;47.858;9.594;2022-12-17T08:15:35;95734.13;;;3.04;51.42
18201;BME280;9226;47.858;9.594;2022-12-17T08:18:19;95738.97;;;4.02;50.37
18201;BME280;9226;47.858;9.594;2022-12-17T08:21:03;95746.03;;;4.52;49.44
18201;BME280;9226;47.858;9.594;2022-12-17T08:23:47;95749.75;;;5.14;48.70
18201;BME280;9226;47.858;9.594;2022-12-17T08:26:31;95752.97;;;5.67;46.68
18201;BME280;9226;47.858;9.594;2022-12-17T08:29:15;95752.03;;;5.84;45.80
18201;BME280;9226;47.858;9.594;2022-12-17T08:31:59;95747.31;;;6.49;45.23
18201;BME280;9226;47.858;9.594;2022-12-17T08:34:42;95756.28;;;7.04;43.52
18201;BME280;9226;47.858;9.594;2022-12-17T08:37:26;95757.88;;;7.07;42.69
18201;BME280;9226;47.858;9.594;2022-12-17T08:40:10;95753.34;;;7.51;42.81
18201;BME280;9226;47.858;9.594;2022-12-17T08:42:57;95757.47;;;8.09;42.85
18201;BME280;9226;47.858;9.594;2022-12-17T08:45:48;95765.22;;;8.53;41.75
18201;BME280;9226;47.858;9.594;2022-12-17T08:48:33;95760.38;;;8.72;40.15
18201;BME280;9226;47.858;9.594;2022-12-17T08:51:18;95763.00;;;8.98;39.91
18201;BME280;9226;47.858;9.594;2022-12-17T08:54:02;95759.53;;;9.34;39.36
18201;BME280;9226;47.858;9.594;2022-12-17T08:56:46;95750.69;;;9.59;39.79
18201;BME280;9226;47.858;9.594;2022-12-17T08:59:30;95758.25;;;9.77;38.83
18201;BME280;9226;47.858;9.594;2022-12-17T09:02:14;95753.13;;;10.11;37.49
18201;BME280;9226;47.858;9.594;2022-12-17T09:04:58;95763.44;;;10.62;38.39
18201;BME280;9226;47.858;9.594;2022-12-17T09:07:42;95771.69;;;10.71;36.26
18201;BME280;9226;47.858;9.594;2022-12-17T09:10:26;95770.28;;;11.12;36.72
18201;BME280;9226;47.858;9.594;2022-12-17T09:13:10;95779.44;;;11.41;35.57
18201;BME280;9226;47.858;9.594;2022-12-17T09:15:54;95780.25;;;10.85;35.60
18201;BME280;9226;47.858;9.594;2022-12-17T09:18:39;95799.03;;;11.40;34.72
18201;BME280;9226;47.858;9.594;2022-12-17T09:21:23;95800.34;;;11.46;34.20
18201;BME280;9226;47.858;9.594;2022-12-17T09:24:08;95814.88;;;12.20;35.29
18201;BME280;9226;47.858;9.594;2022-12-17T09:26:53;95814.13;;;12.82;34.66
18201;BME280;9226;47.858;9.594;2022-12-17T09:29:37;95815.25;;;12.47;33.64
18201;BME280;9226;47.858;9.594;2022-12-17T09:32:25;95817.91;;;12.80;33.43
18201;BME280;9226;47.858;9.594;2022-12-17T09:35:09;95822.56;;;13.09;33.38
18201;BME280;9226;47.858;9.594;2022-12-17T09:37:54;95817.34;;;13.28;32.82
18201;BME280;9226;47.858;9.594;2022-12-17T09:40:39;95827.22;;;13.59;32.57
18201;BME280;9226;47.858;9.594;2022-12-17T09:49:18;95812.00;;;13.28;32.02
18201;BME280;9226;47.858;9.594;2022-12-17T09:52:24;95814.75;;;13.17;30.84
18201;BME280;9226;47.858;9.594;2022-12-17T09:55:19;95818.66;;;13.34;31.29
18201;BME280;9226;47.858;9.594;2022-12-17T09:58:04;95806.28;;;12.81;31.11
18201;BME280;9226;47.858;9.594;2022-12-17T10:00:49;95817.03;;;13.21;31.67
18201;BME280;9226;47.858;9.594;2022-12-17T10:03:34;95816.66;;;13.47;32.08
18201;BME280;9226;47.858;9.594;2022-12-17T10:06:24;95808.78;;;13.25;31.75
18201;BME280;9226;47.858;9.594;2022-12-17T10:09:17;95808.44;;;13.39;30.88
18201;BME280;9226;47.858;9.594;2022-12-17T10:12:11;95801.50;;;13.06;31.14
18201;BME280;9226;47.858;9.594;2022-12-17T10:14:56;95800.63;;;12.95;31.92
18201;BME280;9226;47.858;9.594;2022-12-17T10:17:40;95804.91;;;12.65;31.69
18201;BME280;9226;47.858;9.594;2022-12-17T10:23:22;95798.41;;;12.26;32.10
18201;BME280;9226;47.858;9.594;2022-12-17T10:26:06;95794.19;;;12.23;32.25
18201;BME280;9226;47.858;9.594;2022-12-17T10:28:50;95790.25;;;12.06;32.28
18201;BME280;9226;47.858;9.594;2022-12-17T10:31:42;95795.06;;;12.12;32.89
18201;BME280;9226;47.858;9.594;2022-12-17T10:34:27;95797.69;;;12.24;33.18
18201;BME280;9226;47.858;9.594;2022-12-17T10:37:18;95801.16;;;11.92;32.94
18201;BME280;9226;47.858;9.594;2022-12-17T10:40:14;95800.25;;;12.14;32.84
18201;BME280;9226;47.858;9.594;2022-12-17T10:43:00;95797.00;;;12.10;33.24
18201;BME280;9226;47.858;9.594;2022-12-17T10:45:52;95801.03;;;11.71;32.97
18201;BME280;9226;47.858;9.594;2022-12-17T10:48:37;95797.66;;;11.80;33.77
18201;BME280;9226;47.858;9.594;2022-12-17T10:51:26;95799.44;;;11.91;33.13
18201;BME280;9226;47.858;9.594;2022-12-17T10:54:25;95801.44;;;11.55;32.98
18201;BME280;9226;47.858;9.594;2022-12-17T10:57:31;95796.13;;;11.44;33.31
18201;BME280;9226;47.858;9.594;2022-12-17T11:03:01;95790.56;;;11.35;34.25
18201;BME280;9226;47.858;9.594;2022-12-17T11:05:48;95786.47;;;11.09;33.78
18201;BME280;9226;47.858;9.594;2022-12-17T11:08:36;95788.53;;;11.28;33.87
18201;BME280;9226;47.858;9.594;2022-12-17T11:11:22;95782.94;;;11.08;34.47
18201;BME280;9226;47.858;9.594;2022-12-17T11:14:08;95786.94;;;11.02;35.11
18201;BME280;9226;47.858;9.594;2022-12-17T11:16:59;95792.00;;;11.17;35.06
18201;BME280;9226;47.858;9.594;2022-12-17T11:22:50;95792.84;;;10.00;35.70
18201;BME280;9226;47.858;9.594;2022-12-17T11:25:52;95796.31;;;10.24;35.51
18201;BME280;9226;47.858;9.594;2022-12-17T11:28:37;95795.16;;;10.28;36.09
18201;BME280;9226;47.858;9.594;2022-12-17T11:41:13;95805.59;;;9.57;36.72
18201;BME280;9226;47.858;9.594;2022-12-17T11:50:49;95805.75;;;8.92;38.53
18201;BME280;9226;47.858;9.594;2022-12-17T11:54:10;95809.91;;;8.83;38.36
18201;BME280;9226;47.858;9.594;2022-12-17T11:57:08;95811.97;;;8.65;38.83
18201;BME280;9226;47.858;9.594;2022-12-17T12:00:00;95807.63;;;8.24;39.57
18201;BME280;9226;47.858;9.594;2022-12-17T12:05:51;95810.25;;;7.84;40.33
18201;BME280;9226;47.858;9.594;2022-12-17T12:17:48;95806.03;;;7.11;41.61
18201;BME280;9226;47.858;9.594;2022-12-17T12:21:10;95811.47;;;6.34;42.93
18201;BME280;9226;47.858;9.594;2022-12-17T12:27:18;95803.53;;;6.20;43.87
18201;BME280;9226;47.858;9.594;2022-12-17T12:30:38;95795.19;;;5.65;44.12
18201;BME280;9226;47.858;9.594;2022-12-17T12:33:33;95792.56;;;5.33;45.34
18201;BME280;9226;47.858;9.594;2022-12-17T12:36:22;95803.38;;;4.95;46.29
18201;BME280;9226;47.858;9.594;2022-12-17T12:39:12;95801.09;;;4.71;46.83
18201;BME280;9226;47.858;9.594;2022-12-17T12:42:07;95804.63;;;4.20;47.85
18201;BME280;9226;47.858;9.594;2022-12-17T12:48:08;95816.59;;;3.71;49.71
18201;BME280;9226;47.858;9.594;2022-12-17T12:51:13;95817.66;;;3.50;50.39
18201;BME280;9226;47.858;9.594;2022-12-17T12:54:00;95821.25;;;3.28;50.96
18201;BME280;9226;47.858;9.594;2022-12-17T12:56:45;95819.34;;;3.13;51.71
18201;BME280;9226;47.858;9.594;2022-12-17T12:59:31;95810.41;;;2.98;52.22
18201;BME280;9226;47.858;9.594;2022-12-17T13:05:04;95811.31;;;2.57;53.16
18201;BME280;9226;47.858;9.594;2022-12-17T13:08:21;95809.25;;;2.24;54.37
18201;BME280;9226;47.858;9.594;2022-12-17T13:10:48;95815.00;;;2.32;54.57
18201;BME280;9226;47.858;9.594;2022-12-17T13:15:47;95821.16;;;2.11;54.99
18201;BME280;9226;47.858;9.594;2022-12-17T13:18:33;95818.25;;;1.96;55.41
18201;BME280;9226;47.858;9.594;2022-12-17T13:21:05;95821.09;;;1.70;56.50
18201;BME280;9226;47.858;9.594;2022-12-17T13:23:47;95826.94;;;1.54;57.26
18201;BME280;9226;47.858;9.594;2022-12-17T13:26:42;95826.25;;;1.27;58.38
18201;BME280;9226;47.858;9.594;2022-12-17T13:29:28;95830.69;;;1.25;57.99
18201;BME280;9226;47.858;9.594;2022-12-17T13:34:35;95833.00;;;0.85;59.77
18201;BME280;9226;47.858;9.594;2022-12-17T13:40:02;95828.31;;;0.71;60.30
18201;BME280;9226;47.858;9.594;2022-12-17T13:42:31;95828.78;;;0.58;60.91
18201;BME280;9226;47.858;9.594;2022-12-17T13:44:59;95825.59;;;0.49;61.46
18201;BME280;9226;47.858;9.594;2022-12-17T13:47:30;95831.38;;;0.34;62.35
18201;BME280;9226;47.858;9.594;2022-12-17T13:49:59;95837.91;;;0.21;62.65
18201;BME280;9226;47.858;9.594;2022-12-17T13:52:27;95840.53;;;0.21;62.81
18201;BME280;9226;47.858;9.594;2022-12-17T13:54:53;95839.22;;;0.07;63.49
18201;BME280;9226;47.858;9.594;2022-12-17T14:02:30;95845.03;;;-0.11;64.17
18201;BME280;9226;47.858;9.594;2022-12-17T14:05:00;95834.59;;;-0.11;63.51
18201;BME280;9226;47.858;9.594;2022-12-17T14:07:27;95840.13;;;-0.21;64.50
18201;BME280;9226;47.858;9.594;2022-12-17T14:09:54;95839.53;;;-0.29;64.92
18201;BME280;9226;47.858;9.594;2022-12-17T14:12:24;95846.34;;;-0.25;64.23
18201;BME280;9226;47.858;9.594;2022-12-17T14:14:57;95851.72;;;-0.29;64.82
18201;BME280;9226;47.858;9.594;2022-12-17T14:17:26;95850.88;;;-0.30;64.15
18201;BME280;9226;47.858;9.594;2022-12-17T14:20:44;95858.16;;;-0.41;65.34
18201;BME280;9226;47.858;9.594;2022-12-17T14:23:13;95856.94;;;-0.58;65.65
18201;BME280;9226;47.858;9.594;2022-12-17T14:25:42;95870.69;;;-0.52;65.34
18201;BME280;9226;47.858;9.594;2022-12-17T14:28:35;95869.19;;;-0.60;66.45
18201;BME280;9226;47.858;9.594;2022-12-17T14:31:18;95868.66;;;-0.71;67.18
18201;BME280;9226;47.858;9.594;2022-12-17T14:33:44;95876.75;;;-0.80;67.26
18201;BME280;9226;47.858;9.594;2022-12-17T14:36:20;95879.22;;;-0.76;66.70
18201;BME280;9226;47.858;9.594;2022-12-17T14:38:55;95878.91;;;-0.95;67.78
18201;BME280;9226;47.858;9.594;2022-12-17T14:41:21;95880.50;;;-0.91;67.24
18201;BME280;9226;47.858;9.594;2022-12-17T14:44:20;95889.00;;;-1.14;68.75
18201;BME280;9226;47.858;9.594;2022-12-17T14:46:46;95872.56;;;-1.17;68.92
18201;BME280;9226;47.858;9.594;2022-12-17T14:49:20;95869.59;;;-1.35;69.50
18201;BME280;9226;47.858;9.594;2022-12-17T14:51:47;95869.72;;;-1.39;69.84
18201;BME280;9226;47.858;9.594;2022-12-17T14:56:40;95876.13;;;-1.51;70.18
18201;BME280;9226;47.858;9.594;2022-12-17T14:59:37;95874.75;;;-1.66;70.17
18201;BME280;9226;47.858;9.594;2022-12-17T15:02:24;95873.47;;;-1.83;71.36
18201;BME280;9226;47.858;9.594;2022-12-17T15:04:52;95878.94;;;-1.93;71.79
18201;BME280;9226;47.858;9.594;2022-12-17T15:07:29;95881.00;;;-2.06;71.97
18201;BME280;9226;47.858;9.594;2022-12-17T15:09:55;95887.91;;;-2.05;71.75
18201;BME280;9226;47.858;9.594;2022-12-17T15:12:22;95882.84;;;-2.11;71.85
18201;BME280;9226;47.858;9.594;2022-12-17T15:14:47;95883.66;;;-2.09;71.20
18201;BME280;9226;47.858;9.594;2022-12-17T15:17:14;95882.41;;;-2.29;72.14
18201;BME280;9226;47.858;9.594;2022-12-17T15:19:40;95877.34;;;-2.35;71.77
18201;BME280;9226;47.858;9.594;2022-12-17T15:22:11;95875.75;;;-2.41;72.17
18201;BME280;9226;47.858;9.594;2022-12-17T15:24:38;95889.72;;;-2.45;72.11
18201;BME280;9226;47.858;9.594;2022-12-17T15:27:03;95888.19;;;-2.55;72.76
18201;BME280;9226;47.858;9.594;2022-12-17T15:29:29;95902.88;;;-2.52;72.24
18201;BME280;9226;47.858;9.594;2022-12-17T15:31:56;95896.28;;;-2.69;72.87
18201;BME280;9226;47.858;9.594;2022-12-17T15:34:21;95902.38;;;-2.68;72.58
18201;BME280;9226;47.858;9.594;2022-12-17T15:36:47;95900.97;;;-2.85;73.41
18201;BME280;9226;47.858;9.594;2022-12-17T15:39:12;95907.31;;;-2.98;74.17
18201;BME280;9226;47.858;9.594;2022-12-17T15:41:37;95908.34;;;-3.07;74.71
18201;BME280;9226;47.858;9.594;2022-12-17T15:44:21;95905.66;;;-3.02;74.84
18201;BME280;9226;47.858;9.594;2022-12-17T15:46:47;95909.25;;;-3.08;74.88
18201;BME280;9226;47.858;9.594;2022-12-17T15:49:12;95908.28;;;-3.04;74.71
18201;BME280;9226;47.858;9.594;2022-12-17T15:51:38;95918.63;;;-3.02;74.25
18201;BME280;9226;47.858;9.594;2022-12-17T15:54:03;95927.34;;;-3.03;74.33
18201;BME280;9226;47.858;9.594;2022-12-17T15:56:28;95926.25;;;-2.93;72.46